Woodrising, United Kingdom

2:02 AM GMT on December 04, 2016 (GMT +0000)
Beaufort Park | | Change Station

Elev 190 ft 52.57 °N, 0.85 °E | Updated 26 seconds ago

Clear
Clear
41.4 °F
Feels Like 41 °F
N
0.0
Wind Variable Wind from ESE
Gusts 0.0 mph

Today
High -- | Low -- °F
--% Chance of Precip.
Yesterday
High -- | Low -- °F
Precip. -- in
Pressure 30.29 in
Visibility 6.2 miles
Clouds Clear
Windchill 41 °F
Dew Point 33 °F
Humidity 72%
Rainfall 0.00 in
Snow Depth Not available.
7:49 AM 3:43 PM
Waxing Crescent, 18% visible
METAR EGUL 040158Z AUTO 06004KT 9999 CLR 02/02 A3028 RMK AO2 SLP257 T00200020 $
Pressure 30.29 in
Visibility 6.2 miles
Clouds Clear
Windchill 41 °F
Dew Point 33 °F
Humidity 72%
Rainfall 0.00 in
Snow Depth Not available.
7:49 AM 3:43 PM
Waxing Crescent, 18% visible
METAR EGUL 040158Z AUTO 06004KT 9999 CLR 02/02 A3028 RMK AO2 SLP257 T00200020 $

10-Day Weather Forecast

×

Almanac

Astronomy

Dec. 04, 2016 Rise Set
Actual Time
Civil Twilight
Nautical Twilight
Astronomical Twilight
Moon
Length of Visible Light
Length of Day
Tomorrow will be .
, % of the Moon is Illuminated

Today's Extremes

Country Highs Country Lows

Community

WunderPhotos

Upload Photos

1,955,562 photos uploaded!

WunderBlog® & News

Nearby

Air Quality

  Air Quality AQ Index Pollutant
Not available.

Snow Depth

Station Depth Elevation

Earthquake Activity

City Distance Mag. Time & Date
Minimum magnitude displayed is 2.5.

Coastal Water Temperatures

Place Temperature

Stations

Nearby Weather Stations

Station Location Temp. Windchill Dew Point Humidity Wind Precip. Elev Updated Type